createdAt,value
2018-04-26T00:00:59.437Z,83.16
2018-04-26T00:03:25.340Z,81.63
2018-04-26T00:05:51.220Z,80.97
2018-04-26T00:08:17.258Z,80.40
2018-04-26T00:10:43.217Z,78.76
2018-04-26T00:13:09.110Z,78.85
2018-04-26T00:15:35.015Z,79.11
2018-04-26T00:18:01.229Z,81.21
2018-04-26T00:20:27.292Z,80.72
2018-04-26T00:22:53.171Z,80.43
2018-04-26T00:25:19.147Z,78.99
2018-04-26T00:27:45.107Z,79.95
2018-04-26T00:30:10.979Z,79.52
2018-04-26T00:32:37.060Z,78.65
2018-04-26T00:35:02.982Z,78.94
2018-04-26T00:37:28.888Z,78.91
2018-04-26T00:39:54.852Z,79.85
2018-04-26T00:42:20.737Z,79.78
2018-04-26T00:44:46.752Z,80.55
2018-04-26T00:47:12.959Z,81.01
2018-04-26T00:49:38.865Z,81.02
2018-04-26T00:52:04.750Z,81.26
2018-04-26T00:54:30.704Z,83.44
2018-04-26T00:56:56.752Z,83.81
2018-04-26T00:59:22.660Z,83.07
2018-04-26T01:01:48.575Z,83.82
2018-04-26T01:04:14.500Z,84.75
2018-04-26T01:06:40.380Z,84.62
2018-04-26T01:09:06.464Z,84.54
2018-04-26T01:11:32.353Z,84.75
2018-04-26T01:13:58.288Z,84.58
2018-04-26T01:16:24.384Z,84.48
2018-04-26T01:18:50.275Z,85.26
2018-04-26T01:21:16.337Z,84.82
2018-04-26T01:23:42.254Z,84.72
2018-04-26T01:26:08.143Z,85.43
2018-04-26T01:28:34.023Z,85.58
2018-04-26T01:31:00.040Z,86.11
2018-04-26T01:33:26.108Z,86.31
2018-04-26T01:35:51.982Z,86.63
2018-04-26T01:38:17.887Z,86.72
2018-04-26T01:40:43.781Z,86.21
2018-04-26T01:43:09.667Z,86.45
2018-04-26T01:45:35.720Z,87.00
2018-04-26T01:48:01.641Z,87.20
2018-04-26T01:50:27.538Z,87.40
2018-04-26T01:52:53.748Z,87.08
2018-04-26T01:55:19.628Z,87.14
2018-04-26T01:57:45.639Z,87.41
2018-04-26T02:00:11.569Z,87.71
2018-04-26T02:02:37.452Z,87.65
2018-04-26T02:05:03.365Z,87.40
2018-04-26T02:07:29.309Z,87.68
2018-04-26T02:09:56.135Z,87.75
2018-04-26T02:12:22.024Z,87.98
2018-04-26T02:14:48.014Z,87.82
2018-04-26T02:17:13.891Z,88.06
2018-04-26T02:19:39.793Z,88.02
2018-04-26T02:22:06.260Z,88.20
2018-04-26T02:24:32.139Z,87.90
2018-04-26T02:26:58.040Z,87.71
2018-04-26T02:29:23.985Z,88.53
2018-04-26T02:31:49.865Z,88.70
2018-04-26T02:34:15.897Z,88.82
2018-04-26T02:36:41.842Z,88.73
2018-04-26T02:39:07.722Z,88.89
2018-04-26T02:41:33.636Z,88.97
2018-04-26T02:43:59.609Z,89.36
2018-04-26T02:46:25.642Z,89.62
2018-04-26T02:48:51.541Z,89.87
2018-04-26T02:51:17.475Z,90.20
2018-04-26T02:53:43.354Z,90.00
2018-04-26T02:56:09.222Z,90.10
2018-04-26T02:58:35.292Z,89.90
2018-04-26T03:01:02.225Z,90.27
2018-04-26T03:03:28.125Z,89.76
2018-04-26T03:05:56.978Z,89.71
2018-04-26T03:08:22.939Z,89.59
2018-04-26T03:10:48.903Z,88.99
2018-04-26T03:13:14.849Z,89.09
2018-04-26T03:15:40.711Z,88.42
2018-04-26T03:18:06.615Z,87.93
2018-04-26T03:20:32.549Z,88.59
2018-04-26T03:22:58.574Z,88.91
2018-04-26T03:25:24.483Z,89.01
2018-04-26T03:27:51.136Z,88.91
2018-04-26T03:30:17.011Z,88.69
2018-04-26T03:32:42.871Z,88.85
2018-04-26T03:35:08.915Z,88.85
2018-04-26T03:37:34.802Z,88.63
2018-04-26T03:40:00.678Z,88.68
2018-04-26T03:42:26.588Z,88.80
2018-04-26T03:44:52.495Z,89.07
2018-04-26T03:47:18.543Z,88.24
2018-04-26T03:49:44.470Z,88.46
2018-04-26T03:52:10.376Z,88.84
2018-04-26T03:54:36.285Z,88.72
2018-04-26T03:57:02.209Z,88.99
2018-04-26T03:59:28.235Z,89.13
2018-04-26T04:02:06.445Z,89.13
2018-04-26T04:04:44.834Z,89.25
2018-04-26T04:07:10.757Z,89.56
2018-04-26T04:09:36.812Z,89.95
2018-04-26T04:12:02.713Z,90.15
2018-04-26T04:14:28.661Z,90.08
2018-04-26T04:16:54.604Z,90.00
2018-04-26T04:19:20.573Z,89.37
2018-04-26T04:21:46.648Z,89.55
2018-04-26T04:24:12.527Z,88.87
2018-04-26T04:26:38.419Z,89.04
2018-04-26T04:29:04.344Z,89.19
2018-04-26T04:31:30.267Z,88.98
2018-04-26T04:33:56.361Z,87.46
2018-04-26T04:36:22.264Z,86.63
2018-04-26T04:38:48.152Z,87.16
2018-04-26T04:41:14.014Z,86.42
2018-04-26T04:43:39.943Z,87.35
2018-04-26T04:46:05.947Z,87.58
2018-04-26T04:48:31.824Z,87.05
2018-04-26T04:50:57.730Z,85.81
2018-04-26T04:53:23.628Z,85.76
2018-04-26T04:55:49.500Z,87.44
2018-04-26T04:58:15.564Z,87.76
2018-04-26T05:00:41.453Z,87.81
2018-04-26T05:03:07.339Z,87.47
2018-04-26T05:05:33.254Z,87.83
2018-04-26T05:07:59.155Z,87.11
2018-04-26T05:10:25.179Z,85.15
2018-04-26T05:12:51.115Z,85.42
2018-04-26T05:15:16.988Z,83.28
2018-04-26T05:17:42.864Z,82.88
2018-04-26T05:20:08.950Z,84.62
2018-04-26T05:22:34.947Z,85.12
2018-04-26T05:25:00.799Z,84.07
2018-04-26T05:27:27.000Z,80.83
2018-04-26T05:29:52.896Z,82.02
2018-04-26T05:32:18.776Z,82.13
2018-04-26T05:34:44.864Z,83.30
2018-04-26T05:37:10.713Z,84.48
2018-04-26T05:39:36.612Z,83.96
2018-04-26T05:42:02.616Z,86.50
2018-04-26T05:44:28.502Z,87.84
2018-04-26T05:46:54.567Z,88.86
2018-04-26T05:49:20.475Z,89.32
2018-04-26T05:51:46.342Z,89.31
2018-04-26T05:54:12.221Z,88.71
2018-04-26T05:56:38.136Z,87.81
2018-04-26T05:59:04.168Z,88.70
2018-04-26T06:01:30.057Z,88.06
2018-04-26T06:03:55.955Z,88.77
2018-04-26T06:06:21.825Z,88.97
2018-04-26T06:08:47.698Z,88.03
2018-04-26T06:11:13.732Z,88.32
2018-04-26T06:13:39.668Z,87.54
2018-04-26T06:16:05.514Z,88.28
2018-04-26T06:18:31.476Z,88.47
2018-04-26T06:20:57.340Z,88.96
2018-04-26T06:23:23.360Z,88.98
2018-04-26T06:25:49.576Z,88.83
2018-04-26T06:28:15.441Z,89.54
2018-04-26T06:30:41.346Z,89.85
2018-04-26T06:33:14.989Z,89.04
2018-04-26T06:35:41.027Z,89.37
2018-04-26T06:38:06.949Z,89.42
2018-04-26T06:40:32.904Z,89.81
2018-04-26T06:42:58.801Z,88.65
2018-04-26T06:45:24.681Z,88.97
2018-04-26T06:47:50.842Z,89.63
2018-04-26T06:50:16.648Z,89.63
2018-04-26T06:52:42.567Z,89.73
2018-04-26T06:55:08.487Z,88.89
2018-04-26T06:57:34.377Z,88.88
2018-04-26T07:00:00.442Z,89.40
2018-04-26T07:02:26.372Z,88.87
2018-04-26T07:04:52.254Z,86.81
2018-04-26T07:07:18.116Z,87.13
2018-04-26T07:09:44.054Z,86.50
2018-04-26T07:12:10.118Z,86.58
2018-04-26T07:14:36.095Z,87.58
2018-04-26T07:17:02.009Z,88.54
2018-04-26T07:19:33.376Z,89.11
2018-04-26T07:21:59.251Z,88.51
2018-04-26T07:24:25.673Z,87.43
2018-04-26T07:26:51.628Z,85.66
2018-04-26T07:29:17.494Z,85.27
2018-04-26T07:31:43.435Z,81.32
2018-04-26T07:34:09.339Z,83.08
2018-04-26T07:36:35.499Z,80.68
2018-04-26T07:39:01.477Z,83.17
2018-04-26T07:41:27.351Z,81.96
2018-04-26T07:43:53.305Z,80.03
2018-04-26T07:46:19.217Z,80.86
2018-04-26T07:48:45.279Z,78.55
2018-04-26T07:51:11.154Z,79.46
2018-04-26T07:53:37.140Z,81.05
2018-04-26T07:56:03.036Z,78.01
2018-04-26T07:58:28.907Z,76.68
2018-04-26T08:00:59.256Z,74.67
2018-04-26T08:03:25.125Z,75.19
2018-04-26T08:05:51.021Z,76.28
2018-04-26T08:08:16.932Z,75.59
2018-04-26T08:10:42.812Z,77.51
2018-04-26T08:13:08.829Z,72.94
2018-04-26T08:15:34.751Z,71.93
2018-04-26T08:18:00.789Z,73.19
2018-04-26T08:20:26.673Z,70.06
2018-04-26T08:22:52.681Z,72.46
2018-04-26T08:25:18.691Z,68.13
2018-04-26T08:27:46.591Z,66.22
2018-04-26T08:30:12.933Z,66.84
2018-04-26T08:32:38.840Z,67.74
2018-04-26T08:35:04.728Z,65.52
2018-04-26T08:37:30.791Z,67.21
2018-04-26T08:39:56.679Z,68.82
2018-04-26T08:42:22.559Z,67.08
2018-04-26T08:44:48.552Z,72.15
2018-04-26T08:47:14.440Z,75.83
2018-04-26T08:49:40.499Z,74.13
2018-04-26T08:52:06.432Z,77.41
2018-04-26T08:54:32.325Z,78.52
2018-04-26T08:56:58.221Z,82.61
2018-04-26T08:59:24.145Z,84.44
2018-04-26T09:01:50.205Z,85.34
2018-04-26T09:04:16.095Z,85.06
2018-04-26T09:06:42.081Z,83.63
2018-04-26T09:09:07.999Z,85.54
2018-04-26T09:11:33.888Z,84.76
2018-04-26T09:13:59.919Z,82.35
2018-04-26T09:16:25.797Z,82.64
2018-04-26T09:18:51.768Z,82.81
2018-04-26T09:21:17.738Z,81.31
2018-04-26T09:23:43.599Z,78.13
2018-04-26T09:26:09.652Z,82.09
2018-04-26T09:28:35.568Z,82.23
2018-04-26T09:31:01.448Z,79.33
2018-04-26T09:33:27.854Z,80.83
2018-04-26T09:35:53.887Z,80.23
2018-04-26T09:38:19.906Z,81.57
2018-04-26T09:40:46.105Z,78.93
2018-04-26T09:43:12.049Z,80.23
2018-04-26T09:45:37.940Z,76.83
2018-04-26T09:48:03.817Z,74.66
2018-04-26T09:50:29.871Z,74.14
2018-04-26T09:52:55.739Z,75.72
2018-04-26T09:55:21.639Z,74.72
2018-04-26T09:57:47.557Z,74.62
2018-04-26T10:00:13.456Z,75.39
2018-04-26T10:02:45.519Z,72.63
2018-04-26T10:05:11.452Z,74.82
2018-04-26T10:07:37.350Z,73.98
2018-04-26T10:10:03.251Z,75.91
2018-04-26T10:12:29.163Z,76.30
2018-04-26T10:14:55.179Z,76.21
2018-04-26T10:17:21.075Z,77.46
2018-04-26T10:19:50.908Z,72.93
2018-04-26T10:22:16.833Z,73.90
2018-04-26T10:24:42.768Z,73.20
2018-04-26T10:27:08.828Z,70.90
2018-04-26T10:29:34.719Z,71.17
2018-04-26T10:32:00.609Z,68.95
2018-04-26T10:34:26.543Z,66.59
2018-04-26T10:36:52.439Z,67.05
2018-04-26T10:39:18.478Z,64.91
2018-04-26T10:41:44.395Z,65.38
2018-04-26T10:44:10.294Z,64.23
2018-04-26T10:46:36.180Z,64.71
2018-04-26T10:49:02.149Z,69.57
2018-04-26T10:51:30.452Z,67.39
2018-04-26T10:53:56.347Z,67.43
2018-04-26T10:56:22.272Z,68.20
2018-04-26T10:58:48.500Z,72.01
2018-04-26T11:01:14.401Z,71.55
2018-04-26T11:03:40.803Z,73.03
2018-04-26T11:06:06.675Z,71.80
2018-04-26T11:08:32.557Z,72.35
2018-04-26T11:10:59.550Z,72.96
2018-04-26T11:13:25.443Z,70.18
2018-04-26T11:15:51.466Z,72.38
2018-04-26T11:18:17.529Z,70.60
2018-04-26T11:20:43.523Z,70.04
2018-04-26T11:23:09.501Z,69.42
2018-04-26T11:26:01.775Z,65.96
2018-04-26T11:28:29.145Z,63.49
2018-04-26T11:30:55.217Z,63.57
2018-04-26T11:33:21.155Z,63.73
2018-04-26T11:35:48.200Z,62.07
2018-04-26T11:38:14.454Z,65.36
2018-04-26T11:40:40.475Z,62.00
2018-04-26T11:43:06.356Z,63.67
2018-04-26T11:45:32.334Z,62.52
2018-04-26T11:47:58.231Z,60.51
2018-04-26T11:50:24.251Z,58.78
2018-04-26T11:52:50.448Z,58.70
2018-04-26T11:55:16.461Z,55.61
2018-04-26T11:57:42.425Z,54.04
2018-04-26T12:00:08.563Z,50.40
2018-04-26T12:02:34.871Z,49.55
2018-04-26T12:05:01.396Z,52.33
2018-04-26T12:07:27.767Z,50.20
2018-04-26T12:09:56.520Z,51.50
2018-04-26T12:12:31.184Z,52.65
2018-04-26T12:15:01.227Z,53.37
2018-04-26T12:17:27.160Z,56.06
2018-04-26T12:19:53.198Z,55.23
2018-04-26T12:22:19.144Z,56.18
2018-04-26T12:24:46.497Z,55.04
2018-04-26T12:27:12.884Z,55.47
2018-04-26T12:29:38.794Z,53.13
2018-04-26T12:32:04.691Z,55.45
2018-04-26T12:34:30.850Z,56.57
2018-04-26T12:36:56.740Z,54.66
2018-04-26T12:39:23.001Z,54.46
2018-04-26T12:41:49.396Z,56.50
2018-04-26T12:44:21.477Z,56.95
2018-04-26T12:46:47.420Z,57.04
2018-04-26T12:49:13.338Z,56.76
2018-04-26T12:51:40.059Z,58.67
2018-04-26T12:54:05.930Z,63.48
2018-04-26T12:56:31.877Z,73.18
2018-04-26T12:58:57.988Z,76.11
2018-04-26T13:01:23.893Z,78.55
2018-04-26T13:03:50.549Z,75.20
2018-04-26T13:06:16.428Z,77.90
2018-04-26T13:08:42.297Z,77.20
2018-04-26T13:11:08.584Z,76.59
2018-04-26T13:13:34.472Z,75.15
2018-04-26T13:16:01.202Z,74.04
2018-04-26T13:18:27.342Z,76.48
2018-04-26T13:20:53.224Z,72.75
2018-04-26T13:23:19.416Z,79.67
2018-04-26T13:25:45.353Z,71.09
2018-04-26T13:28:11.886Z,70.07
2018-04-26T13:30:37.786Z,65.12
2018-04-26T13:33:03.754Z,63.92
2018-04-26T13:35:30.065Z,65.78
2018-04-26T13:37:56.136Z,60.63
2018-04-26T13:40:22.543Z,62.62
2018-04-26T13:42:48.469Z,63.07
2018-04-26T13:45:14.371Z,66.57
2018-04-26T13:47:40.601Z,62.59
2018-04-26T13:50:06.510Z,63.78
2018-04-26T13:52:32.897Z,65.68
2018-04-26T13:55:00.237Z,68.59
2018-04-26T13:57:26.344Z,68.70
2018-04-26T13:59:55.820Z,68.61
2018-04-26T14:02:21.797Z,68.69
2018-04-26T14:04:47.849Z,68.28
2018-04-26T14:07:13.788Z,67.18
2018-04-26T14:09:39.711Z,67.02
2018-04-26T14:12:05.593Z,63.54
2018-04-26T14:14:31.838Z,67.45
2018-04-26T14:16:57.987Z,67.70
2018-04-26T14:19:26.532Z,63.68
2018-04-26T14:21:52.452Z,63.58
2018-04-26T14:24:18.433Z,62.27
2018-04-26T14:26:44.381Z,57.76
2018-04-26T14:29:10.435Z,58.26
2018-04-26T14:31:36.443Z,60.29
2018-04-26T14:34:02.324Z,61.38
2018-04-26T14:36:28.213Z,58.23
2018-04-26T14:38:55.199Z,56.45
2018-04-26T14:41:21.112Z,53.77
2018-04-26T14:43:47.014Z,55.18
2018-04-26T14:46:12.920Z,56.73
2018-04-26T14:48:38.818Z,56.28
2018-04-26T14:51:04.979Z,59.37
2018-04-26T14:53:30.898Z,59.22
2018-04-26T14:55:56.950Z,59.04
2018-04-26T14:58:22.861Z,56.05
2018-04-26T15:00:48.940Z,55.33
2018-04-26T15:03:14.811Z,56.44
2018-04-26T15:05:40.707Z,57.43
2018-04-26T15:08:07.016Z,57.47
2018-04-26T15:10:32.928Z,57.06
2018-04-26T15:12:58.840Z,58.80
2018-04-26T15:15:24.819Z,58.97
2018-04-26T15:17:51.803Z,60.25
2018-04-26T15:20:18.458Z,65.17
2018-04-26T15:22:44.396Z,69.71
2018-04-26T15:25:10.300Z,71.74
2018-04-26T15:27:36.330Z,76.17
2018-04-26T15:30:02.382Z,79.68
2018-04-26T15:32:28.245Z,78.16
2018-04-26T15:34:54.924Z,78.91
2018-04-26T15:37:20.889Z,79.20
2018-04-26T15:39:47.258Z,79.19
2018-04-26T15:42:13.262Z,80.64
2018-04-26T15:44:39.176Z,78.29
2018-04-26T15:47:05.116Z,80.38
2018-04-26T15:49:31.008Z,79.93
2018-04-26T15:51:57.155Z,78.54
2018-04-26T15:54:33.359Z,78.09
2018-04-26T15:57:32.239Z,77.83
2018-04-26T16:00:10.419Z,76.49
2018-04-26T16:09:18.331Z,73.54
2018-04-26T16:11:56.478Z,73.93
2018-04-26T16:14:34.988Z,76.93
2018-04-26T16:17:24.659Z,73.94
2018-04-26T16:20:09.058Z,74.43
2018-04-26T16:26:07.354Z,73.38
2018-04-26T16:28:52.446Z,71.98
2018-04-26T16:31:37.151Z,73.68
2018-04-26T16:34:15.395Z,72.54
2018-04-26T16:36:53.740Z,73.11
2018-04-26T16:39:19.692Z,70.65
2018-04-26T16:41:45.572Z,69.24
2018-04-26T16:44:12.330Z,70.32
2018-04-26T16:46:38.215Z,70.11
2018-04-26T16:49:04.227Z,70.52
2018-04-26T16:51:30.265Z,71.63
2018-04-26T16:53:56.179Z,72.18
2018-04-26T16:56:22.098Z,72.77
2018-04-26T16:58:48.042Z,72.82
2018-04-26T17:01:13.928Z,73.79
2018-04-26T17:03:39.905Z,75.50
2018-04-26T17:06:05.859Z,73.31
2018-04-26T17:08:31.742Z,72.87
2018-04-26T17:10:57.643Z,71.66
2018-04-26T17:13:23.576Z,72.98
2018-04-26T17:15:49.686Z,73.43
2018-04-26T17:18:15.574Z,73.38
2018-04-26T17:20:41.536Z,72.93
2018-04-26T17:23:07.403Z,74.20
2018-04-26T17:25:33.346Z,74.87
2018-04-26T17:27:59.437Z,74.81
2018-04-26T17:30:25.297Z,76.84
2018-04-26T17:32:51.193Z,78.19
2018-04-26T17:35:17.127Z,77.08
2018-04-26T17:37:43.002Z,76.18
